Endeavor CRJ9 at Chattanooga on Mar 18th 2021, wing tip strike on landing

Last Update: March 21, 2021 / 19:40:15 GMT/Zulu time

Bookmark this article
Incident Facts

Date of incident
Mar 18, 2021

Classification
Incident

Flight number
DL-4757

Aircraft Registration
N910XJ

ICAO Type Designator
CRJ9

Airport ICAO Code
KCHA

An Endeavor Canadair CRJ-900 on behalf of Delta Airlines, registration N910XJ performing flight DL-4757 from Atlanta,GA to Chattanooga,TN (USA), landed on Chattanooga's runway 20 however, struck the left wing tip onto the runway surface. The aircraft rolled out without further incident and vacated the runway. There were no injuries.

The aircraft was unable to depart for the return flight and is still on the ground in Chattanooga about 19.5 hours after landing.

A replacement CRJ-900 registration N914XJ positioned from Detroit,MI (USA) to Chattanooga and performed the return flight arriving in Atlanta with a delay of 3:45 hours.



Metars:
KCHA 182053Z 23013G24KT 10SM BKN045 OVC060 15/06 A2973 RMK AO2 PK WND 22029/2020 SLP063 T01500056 53021=
KCHA 181953Z 24015G25KT 10SM BKN044 BKN065 16/07 A2971 RMK AO2 PK WND 22031/1928 SLP055 T01610067=
KCHA 181853Z 24015G27KT 10SM BKN050 BKN065 18/07 A2967 RMK AO2 PK WND 24030/1758 SLP043 T01830067=
KCHA 181753Z 21018G29KT 10SM SCT033 BKN055 21/08 A2967 RMK AO2 PK WND 21029/1746 SLP041 T02060083 10211 20167 50000=
KCHA 181653Z 24016G24KT 10SM SCT037 BKN055 BKN075 19/12 A2967 RMK AO2 SLP042 T01890117=
KCHA 181553Z 20015G21KT 10SM SCT031 BKN045 BKN060 19/12 A2967 RMK AO2 SLP043 T01940117=
KCHA 181453Z 21012KT 10SM SCT029 SCT060 20/13 A2967 RMK AO2 SLP041 T02000128 50004=
Aircraft Registration Data New!
Registration mark
N910XJ
Country of Registration
United States
Date of Registration
FAldqnghenfcinmfe Subscribe to unlock
Manufacturer
BOMBARDIER INC
Aircraft Model / Type
CL-600-2D24
Number of Seats
ICAO Aircraft Type
CRJ9
Year of Manufacture
Serial Number
Aircraft Address / Mode S Code (HEX)
Engine Count
Engine Manufacturer
Engine Model
Engine Type
Pounds of Thrust
Main Owner
hemdmieqAgnlfApmAbjdAgbiqblldjphhmckdihiebAnibbmmliAqAkjblgii lqbkijbpm dhnkbchgdnibepfipfldlinmcjknAAgjdphmnkbnhphi Subscribe to unlock
Incident Facts

Date of incident
Mar 18, 2021

Classification
Incident

Flight number
DL-4757

Aircraft Registration
N910XJ

ICAO Type Designator
CRJ9

Airport ICAO Code
KCHA

This article is published under license from Avherald.com. © of text by Avherald.com.
Article source

You can read 4 more free articles without a subscription.

Subscribe now and continue reading without any limits!

Are you a subscriber?
Login
Subscribe

Read unlimited articles and receive our daily update briefing. Gain better insights into what is happening in commercial aviation safety.

Free newsletter

Want to know more and stay ahead? Get our free weekly newsletter and join 4946 existing subscribers.

By subscribing, you accept our terms and conditions and confirm that you've read our privacy policy.

Send tip

Support AeroInside by sending a small tip amount.

Related articles

Newest articles

Subscribe today

Are you researching aviation incidents? Get access to AeroInside Insights, unlimited read access and receive the daily newsletter.

Pick your plan and subscribe

Partner

Blockaviation logo

A new way to document and demonstrate airworthiness compliance and aircraft value. Find out more.

Virtual Speech logo

ELITE Simulation Solutions is a leading global provider of Flight Simulation Training Devices, IFR training software as well as flight controls and related services. Find out more.

Get updates

Never miss an article from AeroInside. Subscribe to our free weekly newsletter and join 4946 existing subscribers.

By subscribing, you accept our terms and conditions and that you've read our privacy policy.

AeroInside Blog
Popular aircraft
Airbus A320
Boeing 737-800
Boeing 737-800 MAX
Popular airlines
American Airlines
United
Delta
Air Canada
Lufthansa
British Airways